sensor_id;sensor_type;location;lat;lon;timestamp;P1;durP1;ratioP1;P2;durP2;ratioP2
58015;SDS011;43809;52.110;20.964;2023-02-01T00:01:34;11.25;;;5.95;;
58015;SDS011;43809;52.110;20.964;2023-02-01T00:03:34;9.90;;;6.00;;
58015;SDS011;43809;52.110;20.964;2023-02-01T00:05:35;10.52;;;5.85;;
58015;SDS011;43809;52.110;20.964;2023-02-01T00:07:35;12.07;;;5.43;;
58015;SDS011;43809;52.110;20.964;2023-02-01T00:09:35;9.05;;;5.20;;
58015;SDS011;43809;52.110;20.964;2023-02-01T00:11:36;8.85;;;5.43;;
58015;SDS011;43809;52.110;20.964;2023-02-01T00:13:37;8.67;;;5.10;;
58015;SDS011;43809;52.110;20.964;2023-02-01T00:15:37;8.87;;;4.70;;
58015;SDS011;43809;52.110;20.964;2023-02-01T00:17:38;8.77;;;4.97;;
58015;SDS011;43809;52.110;20.964;2023-02-01T00:19:38;10.70;;;4.93;;
58015;SDS011;43809;52.110;20.964;2023-02-01T00:21:38;10.05;;;5.32;;
58015;SDS011;43809;52.110;20.964;2023-02-01T00:23:38;7.53;;;4.85;;
58015;SDS011;43809;52.110;20.964;2023-02-01T00:25:39;8.63;;;4.93;;
58015;SDS011;43809;52.110;20.964;2023-02-01T00:27:39;7.82;;;4.30;;
58015;SDS011;43809;52.110;20.964;2023-02-01T00:29:39;7.93;;;4.70;;
58015;SDS011;43809;52.110;20.964;2023-02-01T00:31:40;7.67;;;4.13;;
58015;SDS011;43809;52.110;20.964;2023-02-01T00:33:40;7.72;;;4.20;;
58015;SDS011;43809;52.110;20.964;2023-02-01T00:35:40;7.78;;;4.28;;
58015;SDS011;43809;52.110;20.964;2023-02-01T00:37:40;7.82;;;4.78;;
58015;SDS011;43809;52.110;20.964;2023-02-01T00:39:40;7.47;;;4.43;;
58015;SDS011;43809;52.110;20.964;2023-02-01T00:41:41;8.90;;;4.35;;
58015;SDS011;43809;52.110;20.964;2023-02-01T00:43:41;7.28;;;4.07;;
58015;SDS011;43809;52.110;20.964;2023-02-01T00:45:42;6.40;;;4.18;;
58015;SDS011;43809;52.110;20.964;2023-02-01T00:47:42;6.57;;;4.00;;
58015;SDS011;43809;52.110;20.964;2023-02-01T00:49:42;5.83;;;3.90;;
58015;SDS011;43809;52.110;20.964;2023-02-01T00:51:42;6.83;;;3.33;;
58015;SDS011;43809;52.110;20.964;2023-02-01T00:53:42;4.90;;;2.90;;
58015;SDS011;43809;52.110;20.964;2023-02-01T00:55:46;5.32;;;2.92;;
58015;SDS011;43809;52.110;20.964;2023-02-01T00:57:47;4.53;;;2.60;;
58015;SDS011;43809;52.110;20.964;2023-02-01T00:59:47;6.43;;;2.95;;
58015;SDS011;43809;52.110;20.964;2023-02-01T01:01:47;5.93;;;2.85;;
58015;SDS011;43809;52.110;20.964;2023-02-01T01:03:48;4.07;;;2.05;;
58015;SDS011;43809;52.110;20.964;2023-02-01T01:05:50;6.43;;;1.88;;
58015;SDS011;43809;52.110;20.964;2023-02-01T01:07:50;5.18;;;1.90;;
58015;SDS011;43809;52.110;20.964;2023-02-01T01:09:50;5.90;;;2.00;;
58015;SDS011;43809;52.110;20.964;2023-02-01T01:11:51;4.65;;;2.03;;
58015;SDS011;43809;52.110;20.964;2023-02-01T01:13:53;5.90;;;1.98;;
58015;SDS011;43809;52.110;20.964;2023-02-01T01:15:53;2.95;;;1.52;;
58015;SDS011;43809;52.110;20.964;2023-02-01T01:17:53;2.38;;;1.60;;
58015;SDS011;43809;52.110;20.964;2023-02-01T01:19:54;2.10;;;1.37;;
58015;SDS011;43809;52.110;20.964;2023-02-01T01:21:54;4.50;;;1.50;;
58015;SDS011;43809;52.110;20.964;2023-02-01T01:23:54;4.85;;;1.90;;
58015;SDS011;43809;52.110;20.964;2023-02-01T01:25:54;3.08;;;1.77;;
58015;SDS011;43809;52.110;20.964;2023-02-01T01:27:54;4.78;;;1.85;;
58015;SDS011;43809;52.110;20.964;2023-02-01T01:29:55;4.35;;;2.13;;
58015;SDS011;43809;52.110;20.964;2023-02-01T01:31:55;4.87;;;2.13;;
58015;SDS011;43809;52.110;20.964;2023-02-01T01:33:56;5.20;;;2.03;;
58015;SDS011;43809;52.110;20.964;2023-02-01T01:35:57;4.47;;;2.10;;
58015;SDS011;43809;52.110;20.964;2023-02-01T01:37:57;3.33;;;1.92;;
58015;SDS011;43809;52.110;20.964;2023-02-01T01:39:58;7.43;;;2.22;;
58015;SDS011;43809;52.110;20.964;2023-02-01T01:41:58;6.83;;;1.97;;
58015;SDS011;43809;52.110;20.964;2023-02-01T01:44:03;6.35;;;2.13;;
58015;SDS011;43809;52.110;20.964;2023-02-01T01:46:03;2.47;;;1.60;;
58015;SDS011;43809;52.110;20.964;2023-02-01T01:48:05;6.50;;;1.92;;
58015;SDS011;43809;52.110;20.964;2023-02-01T01:50:07;6.72;;;1.90;;
58015;SDS011;43809;52.110;20.964;2023-02-01T01:52:07;4.47;;;1.80;;
58015;SDS011;43809;52.110;20.964;2023-02-01T01:54:12;3.47;;;1.95;;
58015;SDS011;43809;52.110;20.964;2023-02-01T01:56:16;6.93;;;1.73;;
58015;SDS011;43809;52.110;20.964;2023-02-01T02:00:27;4.43;;;1.80;;
58015;SDS011;43809;52.110;20.964;2023-02-01T02:02:27;7.30;;;2.13;;
58015;SDS011;43809;52.110;20.964;2023-02-01T02:04:27;7.75;;;2.13;;
58015;SDS011;43809;52.110;20.964;2023-02-01T02:08:28;6.97;;;2.37;;
58015;SDS011;43809;52.110;20.964;2023-02-01T02:10:30;4.75;;;1.80;;
58015;SDS011;43809;52.110;20.964;2023-02-01T02:12:49;8.25;;;2.17;;
58015;SDS011;43809;52.110;20.964;2023-02-01T02:14:49;6.85;;;2.40;;
58015;SDS011;43809;52.110;20.964;2023-02-01T02:16:57;9.90;;;2.45;;
58015;SDS011;43809;52.110;20.964;2023-02-01T02:21:23;6.15;;;2.53;;
58015;SDS011;43809;52.110;20.964;2023-02-01T02:23:37;7.32;;;2.50;;
58015;SDS011;43809;52.110;20.964;2023-02-01T02:36:58;8.32;;;2.20;;
58015;SDS011;43809;52.110;20.964;2023-02-01T02:41:35;6.32;;;1.90;;
58015;SDS011;43809;52.110;20.964;2023-02-01T02:44:11;7.97;;;1.73;;
58015;SDS011;43809;52.110;20.964;2023-02-01T02:46:36;6.68;;;2.58;;
58015;SDS011;43809;52.110;20.964;2023-02-01T02:49:01;7.63;;;2.17;;
58015;SDS011;43809;52.110;20.964;2023-02-01T02:51:05;4.72;;;1.83;;
58015;SDS011;43809;52.110;20.964;2023-02-01T02:55:45;9.98;;;2.45;;
58015;SDS011;43809;52.110;20.964;2023-02-01T02:57:45;9.93;;;2.20;;
58015;SDS011;43809;52.110;20.964;2023-02-01T03:00:06;9.18;;;2.28;;
58015;SDS011;43809;52.110;20.964;2023-02-01T03:02:26;8.95;;;2.08;;
58015;SDS011;43809;52.110;20.964;2023-02-01T03:04:45;7.88;;;1.88;;
58015;SDS011;43809;52.110;20.964;2023-02-01T03:06:45;7.27;;;1.80;;
58015;SDS011;43809;52.110;20.964;2023-02-01T03:08:46;5.68;;;2.00;;
58015;SDS011;43809;52.110;20.964;2023-02-01T03:13:11;8.32;;;2.15;;
58015;SDS011;43809;52.110;20.964;2023-02-01T03:15:12;8.35;;;1.60;;
58015;SDS011;43809;52.110;20.964;2023-02-01T03:17:14;10.38;;;2.38;;
58015;SDS011;43809;52.110;20.964;2023-02-01T03:19:17;8.35;;;2.15;;
58015;SDS011;43809;52.110;20.964;2023-02-01T03:21:29;5.70;;;1.63;;
58015;SDS011;43809;52.110;20.964;2023-02-01T03:23:31;9.15;;;2.30;;
58015;SDS011;43809;52.110;20.964;2023-02-01T03:25:34;5.63;;;2.05;;
58015;SDS011;43809;52.110;20.964;2023-02-01T03:27:41;6.25;;;2.10;;
58015;SDS011;43809;52.110;20.964;2023-02-01T03:29:51;9.52;;;2.17;;
58015;SDS011;43809;52.110;20.964;2023-02-01T03:31:53;8.95;;;1.90;;
58015;SDS011;43809;52.110;20.964;2023-02-01T03:33:53;11.02;;;2.47;;
58015;SDS011;43809;52.110;20.964;2023-02-01T03:40:19;9.68;;;2.08;;
58015;SDS011;43809;52.110;20.964;2023-02-01T03:42:20;6.10;;;1.98;;
58015;SDS011;43809;52.110;20.964;2023-02-01T03:44:23;6.47;;;2.30;;
58015;SDS011;43809;52.110;20.964;2023-02-01T03:46:29;7.60;;;1.88;;
58015;SDS011;43809;52.110;20.964;2023-02-01T03:48:32;6.00;;;2.20;;
58015;SDS011;43809;52.110;20.964;2023-02-01T03:53:12;7.40;;;2.35;;
58015;SDS011;43809;52.110;20.964;2023-02-01T03:55:15;9.32;;;2.45;;
58015;SDS011;43809;52.110;20.964;2023-02-01T03:57:16;10.27;;;2.50;;
58015;SDS011;43809;52.110;20.964;2023-02-01T03:59:19;8.18;;;2.08;;
58015;SDS011;43809;52.110;20.964;2023-02-01T04:01:19;12.55;;;2.63;;
58015;SDS011;43809;52.110;20.964;2023-02-01T04:03:20;10.35;;;2.20;;
58015;SDS011;43809;52.110;20.964;2023-02-01T04:05:21;5.20;;;2.30;;
58015;SDS011;43809;52.110;20.964;2023-02-01T04:07:22;4.93;;;1.73;;
58015;SDS011;43809;52.110;20.964;2023-02-01T04:09:22;7.13;;;2.37;;
58015;SDS011;43809;52.110;20.964;2023-02-01T04:11:22;12.00;;;2.65;;
58015;SDS011;43809;52.110;20.964;2023-02-01T04:13:22;6.57;;;2.10;;
58015;SDS011;43809;52.110;20.964;2023-02-01T04:15:22;9.97;;;2.13;;
58015;SDS011;43809;52.110;20.964;2023-02-01T04:17:23;5.55;;;1.80;;
58015;SDS011;43809;52.110;20.964;2023-02-01T04:19:23;8.50;;;2.03;;
58015;SDS011;43809;52.110;20.964;2023-02-01T04:21:24;7.18;;;2.05;;
58015;SDS011;43809;52.110;20.964;2023-02-01T04:23:24;10.18;;;2.45;;
58015;SDS011;43809;52.110;20.964;2023-02-01T04:25:24;8.53;;;1.77;;
58015;SDS011;43809;52.110;20.964;2023-02-01T04:27:24;11.95;;;2.10;;
58015;SDS011;43809;52.110;20.964;2023-02-01T04:29:24;12.07;;;2.17;;
58015;SDS011;43809;52.110;20.964;2023-02-01T04:31:25;8.07;;;2.03;;
58015;SDS011;43809;52.110;20.964;2023-02-01T04:33:25;7.80;;;1.80;;
58015;SDS011;43809;52.110;20.964;2023-02-01T04:37:28;8.45;;;2.08;;
58015;SDS011;43809;52.110;20.964;2023-02-01T04:39:28;9.27;;;1.88;;
58015;SDS011;43809;52.110;20.964;2023-02-01T04:41:29;10.52;;;1.60;;
58015;SDS011;43809;52.110;20.964;2023-02-01T04:45:35;7.55;;;1.98;;
58015;SDS011;43809;52.110;20.964;2023-02-01T04:47:35;9.27;;;1.60;;
58015;SDS011;43809;52.110;20.964;2023-02-01T04:49:35;9.13;;;1.70;;
58015;SDS011;43809;52.110;20.964;2023-02-01T04:51:35;8.37;;;2.23;;
58015;SDS011;43809;52.110;20.964;2023-02-01T04:53:35;7.68;;;1.95;;
58015;SDS011;43809;52.110;20.964;2023-02-01T04:55:36;7.10;;;1.67;;
58015;SDS011;43809;52.110;20.964;2023-02-01T04:57:36;10.23;;;1.93;;
58015;SDS011;43809;52.110;20.964;2023-02-01T04:59:39;9.50;;;2.03;;
58015;SDS011;43809;52.110;20.964;2023-02-01T05:01:41;10.30;;;1.88;;
58015;SDS011;43809;52.110;20.964;2023-02-01T05:03:42;6.10;;;1.90;;
58015;SDS011;43809;52.110;20.964;2023-02-01T05:05:42;9.18;;;2.15;;
58015;SDS011;43809;52.110;20.964;2023-02-01T05:07:43;8.30;;;1.90;;
58015;SDS011;43809;52.110;20.964;2023-02-01T05:09:43;8.40;;;2.23;;
58015;SDS011;43809;52.110;20.964;2023-02-01T05:11:43;6.27;;;2.10;;
58015;SDS011;43809;52.110;20.964;2023-02-01T05:14:02;10.10;;;2.05;;
58015;SDS011;43809;52.110;20.964;2023-02-01T05:16:02;13.18;;;2.20;;
58015;SDS011;43809;52.110;20.964;2023-02-01T05:20:40;4.80;;;1.75;;
58015;SDS011;43809;52.110;20.964;2023-02-01T05:22:41;7.40;;;1.42;;
58015;SDS011;43809;52.110;20.964;2023-02-01T05:24:41;9.32;;;1.98;;
58015;SDS011;43809;52.110;20.964;2023-02-01T05:26:41;13.23;;;2.33;;
58015;SDS011;43809;52.110;20.964;2023-02-01T05:28:41;9.18;;;1.70;;
58015;SDS011;43809;52.110;20.964;2023-02-01T05:30:42;9.32;;;2.28;;
58015;SDS011;43809;52.110;20.964;2023-02-01T05:32:42;8.23;;;1.77;;
58015;SDS011;43809;52.110;20.964;2023-02-01T05:34:42;11.15;;;2.50;;
58015;SDS011;43809;52.110;20.964;2023-02-01T05:36:42;5.77;;;2.07;;
58015;SDS011;43809;52.110;20.964;2023-02-01T05:38:42;14.63;;;2.20;;
58015;SDS011;43809;52.110;20.964;2023-02-01T05:40:56;14.07;;;2.25;;
58015;SDS011;43809;52.110;20.964;2023-02-01T05:42:56;8.98;;;2.17;;
58015;SDS011;43809;52.110;20.964;2023-02-01T05:44:56;12.63;;;2.73;;
58015;SDS011;43809;52.110;20.964;2023-02-01T05:46:56;12.00;;;2.35;;
58015;SDS011;43809;52.110;20.964;2023-02-01T05:48:57;6.15;;;2.22;;
58015;SDS011;43809;52.110;20.964;2023-02-01T05:50:57;5.73;;;1.80;;
58015;SDS011;43809;52.110;20.964;2023-02-01T05:55:22;10.70;;;2.42;;
58015;SDS011;43809;52.110;20.964;2023-02-01T05:57:22;7.82;;;1.90;;
58015;SDS011;43809;52.110;20.964;2023-02-01T05:59:33;7.35;;;1.98;;
58015;SDS011;43809;52.110;20.964;2023-02-01T06:01:33;5.78;;;1.90;;
58015;SDS011;43809;52.110;20.964;2023-02-01T06:03:33;9.97;;;2.03;;
58015;SDS011;43809;52.110;20.964;2023-02-01T06:05:33;6.50;;;2.03;;
58015;SDS011;43809;52.110;20.964;2023-02-01T06:07:33;9.63;;;2.17;;
58015;SDS011;43809;52.110;20.964;2023-02-01T06:09:34;10.15;;;2.13;;
58015;SDS011;43809;52.110;20.964;2023-02-01T06:11:34;11.55;;;2.53;;
58015;SDS011;43809;52.110;20.964;2023-02-01T06:13:34;10.50;;;2.33;;
58015;SDS011;43809;52.110;20.964;2023-02-01T06:15:35;10.37;;;1.93;;
58015;SDS011;43809;52.110;20.964;2023-02-01T06:17:37;8.48;;;1.73;;
58015;SDS011;43809;52.110;20.964;2023-02-01T06:19:38;7.05;;;1.95;;
58015;SDS011;43809;52.110;20.964;2023-02-01T06:21:40;7.22;;;2.03;;
58015;SDS011;43809;52.110;20.964;2023-02-01T06:23:40;10.93;;;2.00;;
58015;SDS011;43809;52.110;20.964;2023-02-01T06:25:41;7.35;;;2.00;;
58015;SDS011;43809;52.110;20.964;2023-02-01T06:27:42;7.05;;;2.50;;
58015;SDS011;43809;52.110;20.964;2023-02-01T06:29:42;9.30;;;2.58;;
58015;SDS011;43809;52.110;20.964;2023-02-01T06:31:42;9.90;;;2.00;;
58015;SDS011;43809;52.110;20.964;2023-02-01T06:33:42;8.73;;;1.92;;
58015;SDS011;43809;52.110;20.964;2023-02-01T06:35:43;9.23;;;1.77;;
58015;SDS011;43809;52.110;20.964;2023-02-01T06:37:44;7.18;;;1.95;;
58015;SDS011;43809;52.110;20.964;2023-02-01T06:39:44;9.48;;;2.80;;
58015;SDS011;43809;52.110;20.964;2023-02-01T06:41:48;5.93;;;1.70;;
58015;SDS011;43809;52.110;20.964;2023-02-01T06:43:48;9.27;;;1.85;;
58015;SDS011;43809;52.110;20.964;2023-02-01T06:45:49;10.65;;;1.80;;
58015;SDS011;43809;52.110;20.964;2023-02-01T06:47:58;8.18;;;2.72;;
58015;SDS011;43809;52.110;20.964;2023-02-01T06:49:59;10.50;;;2.65;;
58015;SDS011;43809;52.110;20.964;2023-02-01T06:51:59;7.27;;;1.87;;
58015;SDS011;43809;52.110;20.964;2023-02-01T06:54:02;8.63;;;2.10;;
58015;SDS011;43809;52.110;20.964;2023-02-01T06:56:02;7.40;;;1.98;;
58015;SDS011;43809;52.110;20.964;2023-02-01T06:58:03;11.35;;;2.25;;
58015;SDS011;43809;52.110;20.964;2023-02-01T07:00:03;8.13;;;2.20;;
58015;SDS011;43809;52.110;20.964;2023-02-01T07:02:04;8.82;;;2.03;;
58015;SDS011;43809;52.110;20.964;2023-02-01T07:04:04;8.25;;;1.80;;
58015;SDS011;43809;52.110;20.964;2023-02-01T07:06:05;12.82;;;2.50;;
58015;SDS011;43809;52.110;20.964;2023-02-01T07:08:05;8.20;;;1.83;;
58015;SDS011;43809;52.110;20.964;2023-02-01T07:10:05;9.65;;;1.85;;
58015;SDS011;43809;52.110;20.964;2023-02-01T07:12:06;10.20;;;2.25;;
58015;SDS011;43809;52.110;20.964;2023-02-01T07:14:06;6.85;;;1.85;;
58015;SDS011;43809;52.110;20.964;2023-02-01T07:16:08;11.50;;;1.90;;
58015;SDS011;43809;52.110;20.964;2023-02-01T07:18:09;9.35;;;2.33;;
58015;SDS011;43809;52.110;20.964;2023-02-01T07:20:22;8.63;;;2.77;;
58015;SDS011;43809;52.110;20.964;2023-02-01T07:22:23;7.57;;;1.92;;
58015;SDS011;43809;52.110;20.964;2023-02-01T07:24:23;7.90;;;1.87;;
58015;SDS011;43809;52.110;20.964;2023-02-01T07:26:23;10.50;;;2.10;;
58015;SDS011;43809;52.110;20.964;2023-02-01T07:28:23;11.60;;;2.15;;
58015;SDS011;43809;52.110;20.964;2023-02-01T07:30:24;5.75;;;1.50;;
58015;SDS011;43809;52.110;20.964;2023-02-01T07:32:25;10.57;;;2.23;;
58015;SDS011;43809;52.110;20.964;2023-02-01T07:34:26;10.03;;;2.40;;
58015;SDS011;43809;52.110;20.964;2023-02-01T07:36:26;9.63;;;2.20;;
58015;SDS011;43809;52.110;20.964;2023-02-01T07:38:26;8.45;;;2.05;;
58015;SDS011;43809;52.110;20.964;2023-02-01T07:42:59;10.52;;;1.88;;
58015;SDS011;43809;52.110;20.964;2023-02-01T07:44:59;9.23;;;1.95;;
58015;SDS011;43809;52.110;20.964;2023-02-01T07:47:00;13.52;;;2.10;;
58015;SDS011;43809;52.110;20.964;2023-02-01T07:49:00;7.32;;;2.28;;
58015;SDS011;43809;52.110;20.964;2023-02-01T07:51:05;7.45;;;2.47;;
58015;SDS011;43809;52.110;20.964;2023-02-01T07:53:05;8.57;;;1.75;;
58015;SDS011;43809;52.110;20.964;2023-02-01T07:55:06;8.48;;;2.20;;
58015;SDS011;43809;52.110;20.964;2023-02-01T07:57:06;15.05;;;2.63;;
58015;SDS011;43809;52.110;20.964;2023-02-01T07:59:08;8.82;;;2.42;;
58015;SDS011;43809;52.110;20.964;2023-02-01T08:01:15;6.60;;;2.15;;
58015;SDS011;43809;52.110;20.964;2023-02-01T08:05:57;10.02;;;2.40;;
58015;SDS011;43809;52.110;20.964;2023-02-01T08:07:57;8.57;;;2.40;;
58015;SDS011;43809;52.110;20.964;2023-02-01T08:09:57;7.50;;;2.20;;
58015;SDS011;43809;52.110;20.964;2023-02-01T08:11:57;11.35;;;2.28;;
58015;SDS011;43809;52.110;20.964;2023-02-01T08:13:58;10.27;;;2.40;;
58015;SDS011;43809;52.110;20.964;2023-02-01T08:15:58;8.45;;;2.22;;
58015;SDS011;43809;52.110;20.964;2023-02-01T08:18:10;9.85;;;2.20;;
58015;SDS011;43809;52.110;20.964;2023-02-01T08:20:11;9.35;;;2.00;;
58015;SDS011;43809;52.110;20.964;2023-02-01T08:22:11;13.00;;;2.78;;
58015;SDS011;43809;52.110;20.964;2023-02-01T08:24:11;7.37;;;1.80;;
58015;SDS011;43809;52.110;20.964;2023-02-01T08:26:13;8.10;;;1.80;;
58015;SDS011;43809;52.110;20.964;2023-02-01T08:28:14;14.00;;;2.47;;
58015;SDS011;43809;52.110;20.964;2023-02-01T08:30:14;5.63;;;1.83;;
58015;SDS011;43809;52.110;20.964;2023-02-01T08:32:15;8.60;;;2.15;;
58015;SDS011;43809;52.110;20.964;2023-02-01T08:34:15;12.40;;;2.35;;
58015;SDS011;43809;52.110;20.964;2023-02-01T08:36:15;11.67;;;2.80;;
58015;SDS011;43809;52.110;20.964;2023-02-01T08:38:15;11.02;;;2.17;;
58015;SDS011;43809;52.110;20.964;2023-02-01T08:40:16;10.53;;;2.13;;
58015;SDS011;43809;52.110;20.964;2023-02-01T08:42:16;9.73;;;2.42;;
58015;SDS011;43809;52.110;20.964;2023-02-01T08:44:35;13.63;;;2.38;;
58015;SDS011;43809;52.110;20.964;2023-02-01T08:46:36;9.60;;;2.50;;
58015;SDS011;43809;52.110;20.964;2023-02-01T08:48:36;11.20;;;2.30;;
58015;SDS011;43809;52.110;20.964;2023-02-01T08:53:24;8.15;;;2.00;;
58015;SDS011;43809;52.110;20.964;2023-02-01T08:55:24;10.35;;;2.88;;
58015;SDS011;43809;52.110;20.964;2023-02-01T08:57:25;10.75;;;2.10;;
58015;SDS011;43809;52.110;20.964;2023-02-01T08:59:25;9.95;;;2.22;;
58015;SDS011;43809;52.110;20.964;2023-02-01T09:01:25;8.07;;;2.17;;
58015;SDS011;43809;52.110;20.964;2023-02-01T09:03:25;7.03;;;2.10;;
58015;SDS011;43809;52.110;20.964;2023-02-01T09:05:25;10.15;;;1.95;;
58015;SDS011;43809;52.110;20.964;2023-02-01T09:07:26;7.32;;;2.20;;
58015;SDS011;43809;52.110;20.964;2023-02-01T09:09:27;5.88;;;2.00;;
58015;SDS011;43809;52.110;20.964;2023-02-01T09:11:27;5.35;;;2.30;;
58015;SDS011;43809;52.110;20.964;2023-02-01T09:13:27;7.93;;;1.85;;
58015;SDS011;43809;52.110;20.964;2023-02-01T09:15:28;6.88;;;1.92;;
58015;SDS011;43809;52.110;20.964;2023-02-01T09:17:28;5.47;;;1.92;;
58015;SDS011;43809;52.110;20.964;2023-02-01T09:19:29;11.82;;;2.15;;
58015;SDS011;43809;52.110;20.964;2023-02-01T09:21:29;10.10;;;2.20;;
58015;SDS011;43809;52.110;20.964;2023-02-01T09:23:29;7.25;;;2.22;;
58015;SDS011;43809;52.110;20.964;2023-02-01T09:25:29;9.13;;;2.60;;
58015;SDS011;43809;52.110;20.964;2023-02-01T09:27:29;8.67;;;2.33;;
58015;SDS011;43809;52.110;20.964;2023-02-01T09:29:30;7.97;;;2.53;;
58015;SDS011;43809;52.110;20.964;2023-02-01T09:31:30;7.82;;;2.20;;
58015;SDS011;43809;52.110;20.964;2023-02-01T09:33:30;10.23;;;2.40;;
58015;SDS011;43809;52.110;20.964;2023-02-01T09:35:31;6.47;;;2.50;;
58015;SDS011;43809;52.110;20.964;2023-02-01T09:37:31;8.90;;;2.42;;
58015;SDS011;43809;52.110;20.964;2023-02-01T09:39:32;7.95;;;2.00;;
58015;SDS011;43809;52.110;20.964;2023-02-01T09:44:00;8.57;;;2.28;;
58015;SDS011;43809;52.110;20.964;2023-02-01T09:48:36;7.13;;;1.77;;
58015;SDS011;43809;52.110;20.964;2023-02-01T09:52:42;7.80;;;2.17;;
58015;SDS011;43809;52.110;20.964;2023-02-01T09:55:04;11.75;;;2.47;;
58015;SDS011;43809;52.110;20.964;2023-02-01T09:59:08;8.40;;;2.10;;
58015;SDS011;43809;52.110;20.964;2023-02-01T10:01:15;9.38;;;2.20;;
58015;SDS011;43809;52.110;20.964;2023-02-01T10:03:16;9.18;;;2.15;;
58015;SDS011;43809;52.110;20.964;2023-02-01T10:05:18;11.40;;;2.63;;
58015;SDS011;43809;52.110;20.964;2023-02-01T10:09:49;7.07;;;2.50;;
58015;SDS011;43809;52.110;20.964;2023-02-01T10:14:19;9.60;;;2.10;;
58015;SDS011;43809;52.110;20.964;2023-02-01T10:23:00;6.93;;;2.38;;
58015;SDS011;43809;52.110;20.964;2023-02-01T10:25:04;6.82;;;2.03;;
58015;SDS011;43809;52.110;20.964;2023-02-01T10:29:12;7.87;;;2.40;;
58015;SDS011;43809;52.110;20.964;2023-02-01T10:31:14;7.90;;;2.10;;
58015;SDS011;43809;52.110;20.964;2023-02-01T10:33:22;8.77;;;2.55;;
58015;SDS011;43809;52.110;20.964;2023-02-01T10:38:01;8.57;;;2.88;;
58015;SDS011;43809;52.110;20.964;2023-02-01T10:40:18;7.00;;;2.55;;
58015;SDS011;43809;52.110;20.964;2023-02-01T10:42:22;9.00;;;2.58;;
58015;SDS011;43809;52.110;20.964;2023-02-01T10:44:27;9.77;;;2.50;;
58015;SDS011;43809;52.110;20.964;2023-02-01T10:46:29;6.10;;;2.50;;
58015;SDS011;43809;52.110;20.964;2023-02-01T10:48:29;9.55;;;2.75;;
58015;SDS011;43809;52.110;20.964;2023-02-01T10:57:24;6.75;;;2.35;;
58015;SDS011;43809;52.110;20.964;2023-02-01T11:01:28;11.48;;;2.80;;
58015;SDS011;43809;52.110;20.964;2023-02-01T11:05:43;11.18;;;2.83;;
58015;SDS011;43809;52.110;20.964;2023-02-01T11:07:48;10.07;;;2.90;;
58015;SDS011;43809;52.110;20.964;2023-02-01T11:09:50;10.55;;;2.85;;
58015;SDS011;43809;52.110;20.964;2023-02-01T11:14:01;8.32;;;2.67;;
58015;SDS011;43809;52.110;20.964;2023-02-01T11:16:08;8.40;;;2.40;;
58015;SDS011;43809;52.110;20.964;2023-02-01T11:18:24;9.13;;;3.03;;
58015;SDS011;43809;52.110;20.964;2023-02-01T11:22:31;11.38;;;2.85;;
58015;SDS011;43809;52.110;20.964;2023-02-01T11:24:32;9.33;;;2.77;;
58015;SDS011;43809;52.110;20.964;2023-02-01T11:26:35;10.68;;;2.30;;
58015;SDS011;43809;52.110;20.964;2023-02-01T11:28:40;11.00;;;2.67;;
58015;SDS011;43809;52.110;20.964;2023-02-01T11:30:41;7.32;;;2.75;;
58015;SDS011;43809;52.110;20.964;2023-02-01T11:32:44;8.95;;;2.58;;
58015;SDS011;43809;52.110;20.964;2023-02-01T11:34:49;9.88;;;2.90;;
58015;SDS011;43809;52.110;20.964;2023-02-01T11:36:51;9.98;;;2.90;;
58015;SDS011;43809;52.110;20.964;2023-02-01T11:39:07;9.15;;;3.03;;
58015;SDS011;43809;52.110;20.964;2023-02-01T11:41:12;9.10;;;2.63;;
58015;SDS011;43809;52.110;20.964;2023-02-01T11:45:39;9.45;;;2.97;;
58015;SDS011;43809;52.110;20.964;2023-02-01T11:47:39;11.90;;;2.92;;
58015;SDS011;43809;52.110;20.964;2023-02-01T11:49:40;12.90;;;3.00;;
58015;SDS011;43809;52.110;20.964;2023-02-01T11:51:44;16.13;;;3.63;;
58015;SDS011;43809;52.110;20.964;2023-02-01T12:02:33;8.95;;;3.42;;
58015;SDS011;43809;52.110;20.964;2023-02-01T12:08:54;13.77;;;3.27;;
58015;SDS011;43809;52.110;20.964;2023-02-01T12:11:05;12.43;;;3.65;;
58015;SDS011;43809;52.110;20.964;2023-02-01T12:18:11;15.32;;;3.17;;
58015;SDS011;43809;52.110;20.964;2023-02-01T12:29:54;11.60;;;3.30;;
58015;SDS011;43809;52.110;20.964;2023-02-01T12:34:29;10.75;;;3.47;;
58015;SDS011;43809;52.110;20.964;2023-02-01T12:36:39;12.70;;;3.53;;
58015;SDS011;43809;52.110;20.964;2023-02-01T12:38:55;11.88;;;3.67;;
58015;SDS011;43809;52.110;20.964;2023-02-01T12:43:25;13.40;;;3.55;;
58015;SDS011;43809;52.110;20.964;2023-02-01T12:45:38;16.55;;;4.68;;
58015;SDS011;43809;52.110;20.964;2023-02-01T12:50:14;13.50;;;3.88;;
58015;SDS011;43809;52.110;20.964;2023-02-01T12:52:33;13.68;;;4.38;;
58015;SDS011;43809;52.110;20.964;2023-02-01T12:54:38;9.95;;;3.97;;
58015;SDS011;43809;52.110;20.964;2023-02-01T12:56:46;12.30;;;4.60;;
58015;SDS011;43809;52.110;20.964;2023-02-01T12:58:48;14.50;;;3.95;;
58015;SDS011;43809;52.110;20.964;2023-02-01T13:01:24;10.35;;;3.65;;
58015;SDS011;43809;52.110;20.964;2023-02-01T13:03:32;11.40;;;3.60;;
58015;SDS011;43809;52.110;20.964;2023-02-01T13:08:11;11.77;;;3.72;;
58015;SDS011;43809;52.110;20.964;2023-02-01T13:12:40;11.75;;;4.20;;
58015;SDS011;43809;52.110;20.964;2023-02-01T13:14:53;11.93;;;4.22;;
58015;SDS011;43809;52.110;20.964;2023-02-01T13:16:57;13.40;;;4.20;;
58015;SDS011;43809;52.110;20.964;2023-02-01T13:19:19;14.07;;;4.18;;
58015;SDS011;43809;52.110;20.964;2023-02-01T13:21:27;11.95;;;4.00;;
58015;SDS011;43809;52.110;20.964;2023-02-01T13:23:29;16.05;;;4.10;;
58015;SDS011;43809;52.110;20.964;2023-02-01T13:25:49;12.98;;;4.18;;
58015;SDS011;43809;52.110;20.964;2023-02-01T13:27:54;9.85;;;3.72;;
58015;SDS011;43809;52.110;20.964;2023-02-01T13:30:04;12.60;;;3.65;;
58015;SDS011;43809;52.110;20.964;2023-02-01T13:32:22;10.85;;;3.45;;
58015;SDS011;43809;52.110;20.964;2023-02-01T13:43:28;11.95;;;3.55;;
58015;SDS011;43809;52.110;20.964;2023-02-01T13:45:30;10.65;;;3.58;;
58015;SDS011;43809;52.110;20.964;2023-02-01T13:47:32;8.88;;;3.33;;
58015;SDS011;43809;52.110;20.964;2023-02-01T13:49:38;10.60;;;3.45;;
58015;SDS011;43809;52.110;20.964;2023-02-01T13:51:43;11.57;;;3.67;;
58015;SDS011;43809;52.110;20.964;2023-02-01T13:53:45;9.88;;;3.25;;
58015;SDS011;43809;52.110;20.964;2023-02-01T13:55:46;6.95;;;3.38;;
58015;SDS011;43809;52.110;20.964;2023-02-01T14:00:45;8.27;;;3.58;;
58015;SDS011;43809;52.110;20.964;2023-02-01T14:02:46;7.88;;;3.55;;
58015;SDS011;43809;52.110;20.964;2023-02-01T14:04:48;11.87;;;4.10;;
58015;SDS011;43809;52.110;20.964;2023-02-01T14:06:50;10.20;;;3.60;;
58015;SDS011;43809;52.110;20.964;2023-02-01T14:11:30;9.68;;;3.35;;
58015;SDS011;43809;52.110;20.964;2023-02-01T14:15:28;7.53;;;3.20;;
58015;SDS011;43809;52.110;20.964;2023-02-01T14:17:29;6.50;;;3.40;;
58015;SDS011;43809;52.110;20.964;2023-02-01T14:19:33;7.18;;;3.47;;
58015;SDS011;43809;52.110;20.964;2023-02-01T14:21:34;11.68;;;4.15;;
58015;SDS011;43809;52.110;20.964;2023-02-01T14:23:46;8.00;;;3.75;;
58015;SDS011;43809;52.110;20.964;2023-02-01T14:25:47;13.85;;;4.05;;
58015;SDS011;43809;52.110;20.964;2023-02-01T14:27:48;8.52;;;3.58;;
58015;SDS011;43809;52.110;20.964;2023-02-01T14:29:50;10.85;;;3.80;;
58015;SDS011;43809;52.110;20.964;2023-02-01T14:34:29;8.82;;;3.50;;
58015;SDS011;43809;52.110;20.964;2023-02-01T14:36:41;9.60;;;3.80;;
58015;SDS011;43809;52.110;20.964;2023-02-01T14:38:47;8.05;;;3.45;;